sensor_id;sensor_type;location;lat;lon;timestamp;pressure;altitude;pressure_sealevel;temperature;humidity
64352;BME280;50680;52.626;-8.668;2022-09-06T00:01:23;100175.47;;;15.31;100.00
64352;BME280;50680;52.626;-8.668;2022-09-06T00:03:51;100188.97;;;15.28;100.00
64352;BME280;50680;52.626;-8.668;2022-09-06T00:06:19;100187.56;;;15.24;100.00
64352;BME280;50680;52.626;-8.668;2022-09-06T00:08:47;100187.56;;;15.24;100.00
64352;BME280;50680;52.626;-8.668;2022-09-06T00:11:16;100188.28;;;15.26;100.00
64352;BME280;50680;52.626;-8.668;2022-09-06T00:13:44;100191.06;;;15.25;100.00
64352;BME280;50680;52.626;-8.668;2022-09-06T00:16:16;100193.69;;;15.25;100.00
64352;BME280;50680;52.626;-8.668;2022-09-06T00:18:44;100193.38;;;15.18;100.00
64352;BME280;50680;52.626;-8.668;2022-09-06T00:21:25;100198.66;;;15.18;100.00
64352;BME280;50680;52.626;-8.668;2022-09-06T00:23:52;100203.50;;;15.13;100.00
64352;BME280;50680;52.626;-8.668;2022-09-06T00:26:21;100189.69;;;14.99;100.00
64352;BME280;50680;52.626;-8.668;2022-09-06T00:28:48;100194.53;;;14.94;100.00
64352;BME280;50680;52.626;-8.668;2022-09-06T00:31:21;100180.06;;;14.89;100.00
64352;BME280;50680;52.626;-8.668;2022-09-06T00:33:49;100182.16;;;14.85;100.00
64352;BME280;50680;52.626;-8.668;2022-09-06T00:36:17;100171.34;;;14.88;100.00
64352;BME280;50680;52.626;-8.668;2022-09-06T00:38:44;100158.13;;;14.88;100.00
64352;BME280;50680;52.626;-8.668;2022-09-06T00:41:13;100170.53;;;14.97;100.00
64352;BME280;50680;52.626;-8.668;2022-09-06T00:43:41;100153.56;;;15.00;100.00
64352;BME280;50680;52.626;-8.668;2022-09-06T00:46:11;100162.84;;;14.94;100.00
64352;BME280;50680;52.626;-8.668;2022-09-06T00:48:41;100174.97;;;14.97;100.00
64352;BME280;50680;52.626;-8.668;2022-09-06T00:51:11;100175.50;;;14.91;100.00
64352;BME280;50680;52.626;-8.668;2022-09-06T00:53:38;100190.75;;;14.87;100.00
64352;BME280;50680;52.626;-8.668;2022-09-06T00:56:05;100170.97;;;14.72;100.00
64352;BME280;50680;52.626;-8.668;2022-09-06T00:58:32;100193.78;;;14.82;100.00
64352;BME280;50680;52.626;-8.668;2022-09-06T01:00:59;100197.41;;;14.81;100.00
64352;BME280;50680;52.626;-8.668;2022-09-06T01:03:26;100197.13;;;14.84;100.00
64352;BME280;50680;52.626;-8.668;2022-09-06T01:06:21;100180.19;;;14.87;100.00
64352;BME280;50680;52.626;-8.668;2022-09-06T01:15:12;100199.16;;;15.02;100.00
64352;BME280;50680;52.626;-8.668;2022-09-06T01:20:44;100193.72;;;15.03;100.00
64352;BME280;50680;52.626;-8.668;2022-09-06T01:34:20;100181.53;;;15.02;100.00
64352;BME280;50680;52.626;-8.668;2022-09-06T01:37:05;100172.47;;;14.95;100.00
64352;BME280;50680;52.626;-8.668;2022-09-06T01:39:38;100178.56;;;14.96;100.00
64352;BME280;50680;52.626;-8.668;2022-09-06T01:42:16;100182.03;;;14.96;100.00
64352;BME280;50680;52.626;-8.668;2022-09-06T01:44:52;100184.41;;;14.99;100.00
64352;BME280;50680;52.626;-8.668;2022-09-06T01:47:28;100187.88;;;15.00;100.00
64352;BME280;50680;52.626;-8.668;2022-09-06T01:52:54;100183.97;;;14.94;100.00
64352;BME280;50680;52.626;-8.668;2022-09-06T02:00:56;100175.81;;;14.97;100.00
64352;BME280;50680;52.626;-8.668;2022-09-06T02:04:11;100184.03;;;15.04;100.00
64352;BME280;50680;52.626;-8.668;2022-09-06T02:06:53;100190.00;;;15.06;100.00
64352;BME280;50680;52.626;-8.668;2022-09-06T02:09:25;100182.38;;;15.13;100.00
64352;BME280;50680;52.626;-8.668;2022-09-06T02:11:56;100169.63;;;15.18;100.00
64352;BME280;50680;52.626;-8.668;2022-09-06T02:14:30;100176.28;;;15.22;100.00
64352;BME280;50680;52.626;-8.668;2022-09-06T02:17:00;100166.72;;;15.21;100.00
64352;BME280;50680;52.626;-8.668;2022-09-06T02:19:35;100167.69;;;15.20;100.00
64352;BME280;50680;52.626;-8.668;2022-09-06T02:22:08;100159.75;;;15.20;100.00
64352;BME280;50680;52.626;-8.668;2022-09-06T02:24:37;100146.00;;;15.16;100.00
64352;BME280;50680;52.626;-8.668;2022-09-06T02:27:06;100156.81;;;15.13;100.00
64352;BME280;50680;52.626;-8.668;2022-09-06T02:29:34;100154.31;;;15.12;100.00
64352;BME280;50680;52.626;-8.668;2022-09-06T02:32:23;100172.97;;;15.20;100.00
64352;BME280;50680;52.626;-8.668;2022-09-06T02:34:52;100165.03;;;15.20;100.00
64352;BME280;50680;52.626;-8.668;2022-09-06T02:37:22;100169.06;;;15.14;100.00
64352;BME280;50680;52.626;-8.668;2022-09-06T02:39:53;100159.31;;;15.15;100.00
64352;BME280;50680;52.626;-8.668;2022-09-06T02:42:21;100145.72;;;15.19;100.00
64352;BME280;50680;52.626;-8.668;2022-09-06T02:44:49;100150.19;;;15.29;100.00
64352;BME280;50680;52.626;-8.668;2022-09-06T02:47:16;100153.94;;;15.36;100.00
64352;BME280;50680;52.626;-8.668;2022-09-06T02:49:43;100159.22;;;15.36;100.00
64352;BME280;50680;52.626;-8.668;2022-09-06T02:52:10;100156.72;;;15.34;100.00
64352;BME280;50680;52.626;-8.668;2022-09-06T02:54:37;100161.56;;;15.29;100.00
64352;BME280;50680;52.626;-8.668;2022-09-06T02:57:04;100150.44;;;15.26;100.00
64352;BME280;50680;52.626;-8.668;2022-09-06T02:59:31;100156.72;;;15.25;100.00
64352;BME280;50680;52.626;-8.668;2022-09-06T03:01:58;100145.31;;;15.24;100.00
64352;BME280;50680;52.626;-8.668;2022-09-06T03:04:25;100153.34;;;15.22;100.00
64352;BME280;50680;52.626;-8.668;2022-09-06T03:06:52;100147.81;;;15.26;100.00
64352;BME280;50680;52.626;-8.668;2022-09-06T03:09:19;100151.44;;;15.25;100.00
64352;BME280;50680;52.626;-8.668;2022-09-06T03:11:46;100141.69;;;15.25;100.00
64352;BME280;50680;52.626;-8.668;2022-09-06T03:14:13;100152.25;;;15.25;100.00
64352;BME280;50680;52.626;-8.668;2022-09-06T03:16:42;100133.09;;;15.23;100.00
64352;BME280;50680;52.626;-8.668;2022-09-06T03:19:09;100140.88;;;15.25;100.00
64352;BME280;50680;52.626;-8.668;2022-09-06T03:21:36;100138.38;;;15.23;100.00
64352;BME280;50680;52.626;-8.668;2022-09-06T03:24:03;100153.66;;;15.19;100.00
64352;BME280;50680;52.626;-8.668;2022-09-06T03:26:32;100143.75;;;15.12;100.00
64352;BME280;50680;52.626;-8.668;2022-09-06T03:28:59;100145.94;;;15.07;100.00
64352;BME280;50680;52.626;-8.668;2022-09-06T03:31:26;100149.72;;;15.04;100.00
64352;BME280;50680;52.626;-8.668;2022-09-06T03:33:53;100138.84;;;14.97;100.00
64352;BME280;50680;52.626;-8.668;2022-09-06T03:36:19;100154.13;;;15.03;100.00
64352;BME280;50680;52.626;-8.668;2022-09-06T03:38:46;100155.13;;;15.02;100.00
64352;BME280;50680;52.626;-8.668;2022-09-06T03:41:13;100157.59;;;14.94;100.00
64352;BME280;50680;52.626;-8.668;2022-09-06T03:43:40;100159.78;;;14.89;100.00
64352;BME280;50680;52.626;-8.668;2022-09-06T03:46:06;100149.22;;;14.79;100.00
64352;BME280;50680;52.626;-8.668;2022-09-06T03:48:34;100150.41;;;14.75;100.00
64352;BME280;50680;52.626;-8.668;2022-09-06T03:51:01;100152.63;;;14.70;100.00
64352;BME280;50680;52.626;-8.668;2022-09-06T03:53:28;100142.25;;;14.57;100.00
64352;BME280;50680;52.626;-8.668;2022-09-06T03:55:56;100150.22;;;14.46;100.00
64352;BME280;50680;52.626;-8.668;2022-09-06T03:58:27;100147.81;;;14.33;100.00
64352;BME280;50680;52.626;-8.668;2022-09-06T04:01:07;100156.88;;;14.19;100.00
64352;BME280;50680;52.626;-8.668;2022-09-06T04:03:35;100151.66;;;14.08;100.00
64352;BME280;50680;52.626;-8.668;2022-09-06T04:06:03;100134.09;;;13.97;100.00
64352;BME280;50680;52.626;-8.668;2022-09-06T04:08:31;100153.09;;;14.12;100.00
64352;BME280;50680;52.626;-8.668;2022-09-06T04:10:58;100147.81;;;14.12;100.00
64352;BME280;50680;52.626;-8.668;2022-09-06T04:13:27;100129.53;;;14.20;100.00
64352;BME280;50680;52.626;-8.668;2022-09-06T04:15:54;100132.63;;;14.25;100.00
64352;BME280;50680;52.626;-8.668;2022-09-06T04:18:22;100128.47;;;14.23;100.00
64352;BME280;50680;52.626;-8.668;2022-09-06T04:20:50;100137.38;;;14.32;100.00
64352;BME280;50680;52.626;-8.668;2022-09-06T04:23:18;100135.19;;;14.37;100.00
64352;BME280;50680;52.626;-8.668;2022-09-06T04:25:49;100128.56;;;14.42;100.00
64352;BME280;50680;52.626;-8.668;2022-09-06T04:28:17;100131.50;;;14.49;100.00
64352;BME280;50680;52.626;-8.668;2022-09-06T04:30:45;100135.56;;;14.53;100.00
64352;BME280;50680;52.626;-8.668;2022-09-06T04:33:17;100132.66;;;14.56;100.00
64352;BME280;50680;52.626;-8.668;2022-09-06T04:35:48;100131.00;;;14.55;100.00
64352;BME280;50680;52.626;-8.668;2022-09-06T04:38:15;100141.41;;;14.57;100.00
64352;BME280;50680;52.626;-8.668;2022-09-06T04:40:42;100145.84;;;14.56;100.00
64352;BME280;50680;52.626;-8.668;2022-09-06T04:43:09;100145.84;;;14.56;100.00
64352;BME280;50680;52.626;-8.668;2022-09-06T04:45:36;100140.56;;;14.56;100.00
64352;BME280;50680;52.626;-8.668;2022-09-06T04:48:03;100122.78;;;14.48;100.00
64352;BME280;50680;52.626;-8.668;2022-09-06T04:50:30;100135.28;;;14.56;100.00
64352;BME280;50680;52.626;-8.668;2022-09-06T04:52:57;100140.56;;;14.56;100.00
64352;BME280;50680;52.626;-8.668;2022-09-06T04:55:24;100144.19;;;14.55;100.00
64352;BME280;50680;52.626;-8.668;2022-09-06T04:57:52;100145.03;;;14.56;100.00
64352;BME280;50680;52.626;-8.668;2022-09-06T05:00:19;100141.81;;;14.52;100.00
64352;BME280;50680;52.626;-8.668;2022-09-06T05:02:46;100139.88;;;14.54;100.00
64352;BME280;50680;52.626;-8.668;2022-09-06T05:05:14;100139.88;;;14.54;100.00
64352;BME280;50680;52.626;-8.668;2022-09-06T05:07:40;100140.97;;;14.52;100.00
64352;BME280;50680;52.626;-8.668;2022-09-06T05:10:07;100138.84;;;14.45;100.00
64352;BME280;50680;52.626;-8.668;2022-09-06T05:12:34;100145.16;;;14.54;100.00
64352;BME280;50680;52.626;-8.668;2022-09-06T05:15:06;100137.50;;;14.51;100.00
64352;BME280;50680;52.626;-8.668;2022-09-06T05:17:33;100139.44;;;14.49;100.00
64352;BME280;50680;52.626;-8.668;2022-09-06T05:20:00;100139.19;;;14.52;100.00
64352;BME280;50680;52.626;-8.668;2022-09-06T05:22:27;100131.66;;;14.47;100.00
64352;BME280;50680;52.626;-8.668;2022-09-06T05:24:54;100130.00;;;14.46;100.00
64352;BME280;50680;52.626;-8.668;2022-09-06T05:27:21;100124.13;;;14.43;100.00
64352;BME280;50680;52.626;-8.668;2022-09-06T05:29:47;100131.59;;;14.38;100.00
64352;BME280;50680;52.626;-8.668;2022-09-06T05:32:14;100147.09;;;14.31;100.00
64352;BME280;50680;52.626;-8.668;2022-09-06T05:34:41;100146.78;;;14.24;100.00
64352;BME280;50680;52.626;-8.668;2022-09-06T05:37:08;100159.28;;;14.22;100.00
64352;BME280;50680;52.626;-8.668;2022-09-06T05:39:35;100157.72;;;14.20;100.00
64352;BME280;50680;52.626;-8.668;2022-09-06T05:42:02;100151.16;;;14.14;100.00
64352;BME280;50680;52.626;-8.668;2022-09-06T05:44:33;100160.25;;;14.10;100.00
64352;BME280;50680;52.626;-8.668;2022-09-06T05:47:00;100149.13;;;14.06;100.00
64352;BME280;50680;52.626;-8.668;2022-09-06T05:49:28;100162.19;;;14.08;100.00
64352;BME280;50680;52.626;-8.668;2022-09-06T05:51:56;100165.81;;;14.07;100.00
64352;BME280;50680;52.626;-8.668;2022-09-06T05:54:23;100170.22;;;14.06;100.00
64352;BME280;50680;52.626;-8.668;2022-09-06T05:56:50;100172.75;;;14.08;100.00
64352;BME280;50680;52.626;-8.668;2022-09-06T05:59:17;100170.81;;;14.10;100.00
64352;BME280;50680;52.626;-8.668;2022-09-06T06:01:51;100176.53;;;14.15;100.00
64352;BME280;50680;52.626;-8.668;2022-09-06T06:04:19;100165.03;;;14.16;100.00
64352;BME280;50680;52.626;-8.668;2022-09-06T06:06:46;100164.09;;;14.17;100.00
64352;BME280;50680;52.626;-8.668;2022-09-06T06:09:15;100166.56;;;14.19;100.00
64352;BME280;50680;52.626;-8.668;2022-09-06T06:11:42;100168.38;;;14.18;100.00
64352;BME280;50680;52.626;-8.668;2022-09-06T06:14:09;100165.38;;;14.23;100.00
64352;BME280;50680;52.626;-8.668;2022-09-06T06:16:36;100176.25;;;14.29;100.00
64352;BME280;50680;52.626;-8.668;2022-09-06T06:19:04;100168.91;;;14.33;100.00
64352;BME280;50680;52.626;-8.668;2022-09-06T06:21:32;100169.22;;;14.40;100.00
64352;BME280;50680;52.626;-8.668;2022-09-06T06:24:03;100170.63;;;14.44;100.00
64352;BME280;50680;52.626;-8.668;2022-09-06T06:26:31;100178.28;;;14.47;100.00
64352;BME280;50680;52.626;-8.668;2022-09-06T06:28:58;100176.63;;;14.46;100.00
64352;BME280;50680;52.626;-8.668;2022-09-06T06:31:29;100174.66;;;14.48;100.00
64352;BME280;50680;52.626;-8.668;2022-09-06T06:33:56;100179.69;;;14.51;100.00
64352;BME280;50680;52.626;-8.668;2022-09-06T06:36:25;100183.03;;;14.53;100.00
64352;BME280;50680;52.626;-8.668;2022-09-06T06:38:53;100172.47;;;14.53;100.00
64352;BME280;50680;52.626;-8.668;2022-09-06T06:41:23;100177.75;;;14.53;100.00
64352;BME280;50680;52.626;-8.668;2022-09-06T06:43:51;100170.72;;;14.54;100.00
64352;BME280;50680;52.626;-8.668;2022-09-06T06:46:19;100170.84;;;14.52;100.00
64352;BME280;50680;52.626;-8.668;2022-09-06T06:48:47;100167.22;;;14.53;100.00
64352;BME280;50680;52.626;-8.668;2022-09-06T06:51:22;100174.41;;;14.51;100.00
64352;BME280;50680;52.626;-8.668;2022-09-06T06:53:49;100163.03;;;14.51;100.00
64352;BME280;50680;52.626;-8.668;2022-09-06T06:58:44;100162.47;;;14.47;100.00
64352;BME280;50680;52.626;-8.668;2022-09-06T07:01:19;100160.53;;;14.49;100.00
64352;BME280;50680;52.626;-8.668;2022-09-06T07:03:47;100153.44;;;14.49;100.00
64352;BME280;50680;52.626;-8.668;2022-09-06T07:06:15;100157.50;;;14.54;100.00
64352;BME280;50680;52.626;-8.668;2022-09-06T07:08:42;100151.38;;;14.53;100.00
64352;BME280;50680;52.626;-8.668;2022-09-06T07:11:11;100163.84;;;14.62;100.00
64352;BME280;50680;52.626;-8.668;2022-09-06T07:13:38;100164.28;;;14.68;100.00
64352;BME280;50680;52.626;-8.668;2022-09-06T07:18:33;100162.09;;;14.73;100.00
64352;BME280;50680;52.626;-8.668;2022-09-06T07:21:00;100157.63;;;14.73;100.00
64352;BME280;50680;52.626;-8.668;2022-09-06T07:23:47;100164.06;;;14.80;100.00
64352;BME280;50680;52.626;-8.668;2022-09-06T07:26:30;100161.66;;;14.77;100.00
64352;BME280;50680;52.626;-8.668;2022-09-06T07:28:59;100162.97;;;14.83;100.00
64352;BME280;50680;52.626;-8.668;2022-09-06T07:31:27;100169.47;;;14.79;100.00
64352;BME280;50680;52.626;-8.668;2022-09-06T07:34:14;100170.56;;;14.76;100.00
64352;BME280;50680;52.626;-8.668;2022-09-06T07:36:43;100169.16;;;14.72;100.00
64352;BME280;50680;52.626;-8.668;2022-09-06T07:39:09;100165.94;;;14.69;100.00
64352;BME280;50680;52.626;-8.668;2022-09-06T07:41:36;100164.28;;;14.68;100.00
64352;BME280;50680;52.626;-8.668;2022-09-06T07:44:03;100156.19;;;14.59;100.00
64352;BME280;50680;52.626;-8.668;2022-09-06T07:46:30;100166.94;;;14.77;100.00
64352;BME280;50680;52.626;-8.668;2022-09-06T07:48:57;100174.97;;;14.97;100.00
64352;BME280;50680;52.626;-8.668;2022-09-06T07:51:24;100166.56;;;15.22;100.00
64352;BME280;50680;52.626;-8.668;2022-09-06T07:53:52;100171.34;;;15.38;100.00
64352;BME280;50680;52.626;-8.668;2022-09-06T07:56:40;100174.41;;;15.44;100.00
64352;BME280;50680;52.626;-8.668;2022-09-06T07:59:07;100171.47;;;15.47;100.00
64352;BME280;50680;52.626;-8.668;2022-09-06T08:01:36;100175.28;;;15.64;100.00
64352;BME280;50680;52.626;-8.668;2022-09-06T08:04:13;100172.28;;;15.78;100.00
64352;BME280;50680;52.626;-8.668;2022-09-06T08:06:45;100160.47;;;15.92;100.00
64352;BME280;50680;52.626;-8.668;2022-09-06T08:09:34;100167.53;;;16.01;100.00
64352;BME280;50680;52.626;-8.668;2022-09-06T08:12:02;100169.19;;;16.12;100.00
64352;BME280;50680;52.626;-8.668;2022-09-06T08:14:35;100168.22;;;16.23;100.00
64352;BME280;50680;52.626;-8.668;2022-09-06T08:17:02;100178.06;;;16.40;100.00
64352;BME280;50680;52.626;-8.668;2022-09-06T08:19:29;100179.44;;;16.54;100.00
64352;BME280;50680;52.626;-8.668;2022-09-06T08:21:56;100172.91;;;16.48;100.00
64352;BME280;50680;52.626;-8.668;2022-09-06T08:24:23;100175.41;;;16.60;100.00
64352;BME280;50680;52.626;-8.668;2022-09-06T08:26:50;100156.19;;;16.58;100.00
64352;BME280;50680;52.626;-8.668;2022-09-06T08:29:17;100160.47;;;16.68;100.00
64352;BME280;50680;52.626;-8.668;2022-09-06T08:31:45;100152.53;;;16.68;100.00
64352;BME280;50680;52.626;-8.668;2022-09-06T08:34:13;100141.69;;;16.62;100.00
64352;BME280;50680;52.626;-8.668;2022-09-06T08:36:41;100145.59;;;16.58;100.00
64352;BME280;50680;52.626;-8.668;2022-09-06T08:39:08;100153.81;;;16.54;100.00
64352;BME280;50680;52.626;-8.668;2022-09-06T08:41:52;100153.00;;;16.44;100.00
64352;BME280;50680;52.626;-8.668;2022-09-06T08:44:23;100141.03;;;16.40;100.00
64352;BME280;50680;52.626;-8.668;2022-09-06T08:47:15;100154.97;;;16.42;100.00
64352;BME280;50680;52.626;-8.668;2022-09-06T08:49:46;100156.41;;;16.74;100.00
64352;BME280;50680;52.626;-8.668;2022-09-06T09:00:10;100142.88;;;16.77;100.00
64352;BME280;50680;52.626;-8.668;2022-09-06T09:05:29;100145.75;;;16.46;100.00
64352;BME280;50680;52.626;-8.668;2022-09-06T09:10:50;100156.56;;;16.06;100.00
64352;BME280;50680;52.626;-8.668;2022-09-06T09:13:37;100157.94;;;15.90;100.00
64352;BME280;50680;52.626;-8.668;2022-09-06T09:16:05;100155.16;;;15.82;100.00
64352;BME280;50680;52.626;-8.668;2022-09-06T09:18:36;100159.88;;;15.78;100.00
64352;BME280;50680;52.626;-8.668;2022-09-06T09:21:04;100141.91;;;15.72;100.00
64352;BME280;50680;52.626;-8.668;2022-09-06T09:23:31;100154.59;;;15.78;100.00
64352;BME280;50680;52.626;-8.668;2022-09-06T09:26:04;100156.94;;;15.72;100.00
64352;BME280;50680;52.626;-8.668;2022-09-06T09:28:31;100174.88;;;15.68;100.00
64352;BME280;50680;52.626;-8.668;2022-09-06T09:30:58;100169.16;;;15.63;100.00
64352;BME280;50680;52.626;-8.668;2022-09-06T09:35:57;100160.34;;;15.43;100.00
64352;BME280;50680;52.626;-8.668;2022-09-06T09:38:29;100169.28;;;15.42;100.00
64352;BME280;50680;52.626;-8.668;2022-09-06T09:41:02;100167.06;;;15.47;100.00
64352;BME280;50680;52.626;-8.668;2022-09-06T09:43:35;100167.38;;;15.73;100.00
64352;BME280;50680;52.626;-8.668;2022-09-06T09:51:42;100166.06;;;17.03;100.00
64352;BME280;50680;52.626;-8.668;2022-09-06T09:54:12;100171.28;;;17.22;100.00
64352;BME280;50680;52.626;-8.668;2022-09-06T09:56:52;100169.41;;;17.33;100.00
64352;BME280;50680;52.626;-8.668;2022-09-06T09:59:29;100176.75;;;17.39;100.00
64352;BME280;50680;52.626;-8.668;2022-09-06T10:02:00;100170.91;;;17.35;100.00
64352;BME280;50680;52.626;-8.668;2022-09-06T10:04:44;100170.59;;;17.20;100.00
64352;BME280;50680;52.626;-8.668;2022-09-06T10:07:23;100169.50;;;17.13;100.00
64352;BME280;50680;52.626;-8.668;2022-09-06T10:10:09;100166.38;;;17.00;100.00
64352;BME280;50680;52.626;-8.668;2022-09-06T10:12:40;100163.59;;;16.91;100.00
64352;BME280;50680;52.626;-8.668;2022-09-06T10:15:10;100173.13;;;16.84;100.00
64352;BME280;50680;52.626;-8.668;2022-09-06T10:17:50;100163.19;;;16.96;100.00
64352;BME280;50680;52.626;-8.668;2022-09-06T10:20:17;100157.59;;;17.27;100.00
64352;BME280;50680;52.626;-8.668;2022-09-06T10:25:38;100161.38;;;17.88;100.00
64352;BME280;50680;52.626;-8.668;2022-09-06T10:28:27;100162.25;;;17.79;100.00
64352;BME280;50680;52.626;-8.668;2022-09-06T10:36:35;100160.78;;;17.48;100.00
64352;BME280;50680;52.626;-8.668;2022-09-06T10:42:07;100157.97;;;17.32;100.00
64352;BME280;50680;52.626;-8.668;2022-09-06T10:47:15;100170.38;;;17.32;100.00
64352;BME280;50680;52.626;-8.668;2022-09-06T10:49:47;100169.00;;;17.27;100.00
64352;BME280;50680;52.626;-8.668;2022-09-06T10:52:23;100174.31;;;17.27;100.00
64352;BME280;50680;52.626;-8.668;2022-09-06T10:54:56;100162.56;;;17.30;100.00
64352;BME280;50680;52.626;-8.668;2022-09-06T10:57:36;100171.00;;;17.43;100.00
64352;BME280;50680;52.626;-8.668;2022-09-06T11:00:26;100167.44;;;17.53;100.00
64352;BME280;50680;52.626;-8.668;2022-09-06T11:03:20;100162.09;;;17.62;100.00
64352;BME280;50680;52.626;-8.668;2022-09-06T11:06:11;100155.34;;;17.68;100.00
64352;BME280;50680;52.626;-8.668;2022-09-06T11:09:04;100157.75;;;17.61;100.00
64352;BME280;50680;52.626;-8.668;2022-09-06T11:11:39;100155.97;;;17.62;100.00
64352;BME280;50680;52.626;-8.668;2022-09-06T11:14:12;100148.75;;;17.54;100.00
64352;BME280;50680;52.626;-8.668;2022-09-06T11:16:54;100155.78;;;17.45;100.00
64352;BME280;50680;52.626;-8.668;2022-09-06T11:19:30;100156.25;;;17.41;100.00
64352;BME280;50680;52.626;-8.668;2022-09-06T11:22:19;100147.00;;;17.45;100.00
64352;BME280;50680;52.626;-8.668;2022-09-06T11:27:36;100156.03;;;17.52;100.00
64352;BME280;50680;52.626;-8.668;2022-09-06T11:30:06;100146.19;;;17.62;100.00
64352;BME280;50680;52.626;-8.668;2022-09-06T11:35:07;100157.50;;;17.82;100.00
64352;BME280;50680;52.626;-8.668;2022-09-06T11:37:40;100149.63;;;17.91;100.00
64352;BME280;50680;52.626;-8.668;2022-09-06T11:45:45;100151.06;;;18.03;100.00
64352;BME280;50680;52.626;-8.668;2022-09-06T11:53:20;100141.66;;;17.73;100.00
64352;BME280;50680;52.626;-8.668;2022-09-06T11:58:19;100146.94;;;17.73;100.00
64352;BME280;50680;52.626;-8.668;2022-09-06T12:01:55;100130.28;;;17.62;100.00
64352;BME280;50680;52.626;-8.668;2022-09-06T12:06:35;100146.50;;;17.77;100.00
64352;BME280;50680;52.626;-8.668;2022-09-06T12:09:44;100136.56;;;17.61;100.00
64352;BME280;50680;52.626;-8.668;2022-09-06T12:12:38;100144.13;;;17.38;100.00
64352;BME280;50680;52.626;-8.668;2022-09-06T12:17:54;100128.94;;;17.13;100.00
64352;BME280;50680;52.626;-8.668;2022-09-06T12:23:40;100136.84;;;17.22;100.00
64352;BME280;50680;52.626;-8.668;2022-09-06T12:26:09;100133.97;;;17.34;100.00
64352;BME280;50680;52.626;-8.668;2022-09-06T12:28:48;100137.16;;;17.37;100.00
64352;BME280;50680;52.626;-8.668;2022-09-06T12:31:29;100123.91;;;17.37;100.00
64352;BME280;50680;52.626;-8.668;2022-09-06T12:34:09;100128.41;;;17.55;100.00
64352;BME280;50680;52.626;-8.668;2022-09-06T12:36:50;100127.47;;;17.64;100.00
64352;BME280;50680;52.626;-8.668;2022-09-06T12:39:20;100132.63;;;17.83;100.00
64352;BME280;50680;52.626;-8.668;2022-09-06T12:42:11;100127.56;;;17.90;100.00
64352;BME280;50680;52.626;-8.668;2022-09-06T12:44:40;100140.50;;;18.11;100.00
64352;BME280;50680;52.626;-8.668;2022-09-06T12:47:13;100132.25;;;18.14;100.00
64352;BME280;50680;52.626;-8.668;2022-09-06T12:49:43;100146.19;;;18.16;100.00
64352;BME280;50680;52.626;-8.668;2022-09-06T12:52:13;100147.25;;;18.06;100.00
64352;BME280;50680;52.626;-8.668;2022-09-06T12:54:47;100144.84;;;17.94;100.00
64352;BME280;50680;52.626;-8.668;2022-09-06T12:57:24;100135.00;;;17.69;100.00
64352;BME280;50680;52.626;-8.668;2022-09-06T12:59:56;100131.50;;;17.50;100.00
64352;BME280;50680;52.626;-8.668;2022-09-06T13:04:53;100126.34;;;17.31;100.00
64352;BME280;50680;52.626;-8.668;2022-09-06T13:07:22;100121.31;;;17.27;100.00
64352;BME280;50680;52.626;-8.668;2022-09-06T13:09:52;100110.72;;;17.27;100.00
64352;BME280;50680;52.626;-8.668;2022-09-06T13:12:31;100111.31;;;17.21;100.00
64352;BME280;50680;52.626;-8.668;2022-09-06T13:15:21;100119.41;;;17.20;100.00
64352;BME280;50680;52.626;-8.668;2022-09-06T13:17:50;100122.22;;;17.18;100.00
64352;BME280;50680;52.626;-8.668;2022-09-06T13:20:28;100119.88;;;17.33;100.00
64352;BME280;50680;52.626;-8.668;2022-09-06T13:23:10;100124.84;;;17.46;100.00
64352;BME280;50680;52.626;-8.668;2022-09-06T13:25:49;100118.78;;;17.54;100.00
64352;BME280;50680;52.626;-8.668;2022-09-06T13:28:31;100116.34;;;17.60;100.00
64352;BME280;50680;52.626;-8.668;2022-09-06T13:31:02;100128.31;;;17.64;100.00
64352;BME280;50680;52.626;-8.668;2022-09-06T13:33:30;100118.84;;;17.62;100.00
64352;BME280;50680;52.626;-8.668;2022-09-06T13:38:38;100110.66;;;17.55;100.00
64352;BME280;50680;52.626;-8.668;2022-09-06T13:46:26;100113.81;;;18.39;100.00
64352;BME280;50680;52.626;-8.668;2022-09-06T13:48:54;100110.94;;;18.85;100.00
64352;BME280;50680;52.626;-8.668;2022-09-06T13:51:22;100119.03;;;19.17;100.00
64352;BME280;50680;52.626;-8.668;2022-09-06T13:53:49;100109.09;;;19.36;100.00
64352;BME280;50680;52.626;-8.668;2022-09-06T13:56:16;100106.44;;;19.36;100.00
64352;BME280;50680;52.626;-8.668;2022-09-06T13:58:43;100112.78;;;19.43;100.00
64352;BME280;50680;52.626;-8.668;2022-09-06T14:01:10;100109.16;;;19.61;100.00
64352;BME280;50680;52.626;-8.668;2022-09-06T14:03:40;100102.88;;;19.86;100.00
64352;BME280;50680;52.626;-8.668;2022-09-06T14:06:08;100103.00;;;20.18;100.00
64352;BME280;50680;52.626;-8.668;2022-09-06T14:08:35;100105.94;;;20.47;100.00
64352;BME280;50680;52.626;-8.668;2022-09-06T14:11:23;100093.63;;;20.63;100.00
64352;BME280;50680;52.626;-8.668;2022-09-06T14:13:50;100081.56;;;20.75;100.00
64352;BME280;50680;52.626;-8.668;2022-09-06T14:16:17;100095.66;;;20.92;100.00
64352;BME280;50680;52.626;-8.668;2022-09-06T14:18:44;100089.28;;;21.01;100.00
64352;BME280;50680;52.626;-8.668;2022-09-06T14:21:11;100092.63;;;20.95;100.00
64352;BME280;50680;52.626;-8.668;2022-09-06T14:23:38;100086.72;;;20.77;100.00
64352;BME280;50680;52.626;-8.668;2022-09-06T14:26:05;100081.81;;;20.49;100.00
64352;BME280;50680;52.626;-8.668;2022-09-06T14:28:32;100076.31;;;20.51;100.00
64352;BME280;50680;52.626;-8.668;2022-09-06T14:31:14;100080.78;;;20.66;100.00
64352;BME280;50680;52.626;-8.668;2022-09-06T14:33:41;100070.50;;;20.87;100.00
64352;BME280;50680;52.626;-8.668;2022-09-06T14:36:19;100059.38;;;20.83;100.00
64352;BME280;50680;52.626;-8.668;2022-09-06T14:38:47;100070.56;;;20.78;100.00